Terminal Aerodrome Forecast
Issued by NWS

Home | Current Version | Previous Version | Text Only | Print | Product List | Glossary On
Versions: 1 2 3 4 5 6 7 8 9 10 11 12 13 14 15 16 17
000
FTUS45 KABQ 220539
TAFFMN
TAF
KFMN 220539Z 2206/2306 29012G20KT P6SM FEW070
     FM221100 29006KT P6SM VCFG SCT003
     FM221600 VRB05KT P6SM SCT080 BKN110
     FM222200 09005KT P6SM VCSH BKN050
     FM230100 09010KT 3SM -SN BR OVC020=

USA.gov is the U.S. government's official web portal to all federal, state and local government web resources and services.